createdAt,value
2018-02-23T00:02:02.985Z,-3.20
2018-02-23T00:04:30.136Z,-3.30
2018-02-23T00:06:56.719Z,-3.30
2018-02-23T00:09:24.056Z,-3.30
2018-02-23T00:11:51.061Z,-3.30
2018-02-23T00:14:17.655Z,-3.30
2018-02-23T00:16:43.923Z,-3.30
2018-02-23T00:19:10.406Z,-3.40
2018-02-23T00:21:36.632Z,-3.40
2018-02-23T00:24:03.488Z,-3.40
2018-02-23T00:26:30.676Z,-3.40
2018-02-23T00:28:57.300Z,-3.50
2018-02-23T00:31:24.052Z,-3.40
2018-02-23T00:33:51.141Z,-3.40
2018-02-23T00:36:17.324Z,-3.40
2018-02-23T00:38:43.479Z,-3.40
2018-02-23T00:41:10.139Z,-3.40
2018-02-23T00:43:36.324Z,-3.40
2018-02-23T00:46:02.447Z,-3.40
2018-02-23T00:48:28.547Z,-3.40
2018-02-23T00:50:55.042Z,-3.40
2018-02-23T00:53:22.063Z,-3.40
2018-02-23T00:55:48.463Z,-3.50
2018-02-23T00:58:14.677Z,-3.50
2018-02-23T01:00:41.507Z,-3.50
2018-02-23T01:03:07.677Z,-3.60
2018-02-23T01:05:33.843Z,-3.60
2018-02-23T01:08:00.212Z,-3.50
2018-02-23T01:10:26.607Z,-3.60
2018-02-23T01:12:53.568Z,-3.60
2018-02-23T01:15:20.767Z,-3.60
2018-02-23T01:17:47.894Z,-3.60
2018-02-23T01:20:14.088Z,-3.60
2018-02-23T01:22:40.590Z,-3.60
2018-02-23T01:25:09.983Z,-3.60
2018-02-23T01:27:40.424Z,-3.60
2018-02-23T01:30:09.133Z,-3.80
2018-02-23T01:32:37.373Z,-3.90
2018-02-23T01:35:04.738Z,-3.90
2018-02-23T01:37:31.221Z,-3.90
2018-02-23T01:39:57.464Z,-3.90
2018-02-23T01:42:23.721Z,-3.90
2018-02-23T01:44:50.421Z,-3.90
2018-02-23T01:47:16.757Z,-3.90
2018-02-23T01:49:42.880Z,-3.90
2018-02-23T01:52:09.176Z,-3.90
2018-02-23T01:54:35.312Z,-3.90
2018-02-23T01:57:02.190Z,-3.90
2018-02-23T01:59:28.313Z,-3.90
2018-02-23T02:01:54.501Z,-3.90
2018-02-23T02:04:20.779Z,-3.90
2018-02-23T02:06:46.987Z,-3.90
2018-02-23T02:09:13.144Z,-3.90
2018-02-23T02:11:39.336Z,-3.90
2018-02-23T02:14:05.507Z,-3.80
2018-02-23T02:16:32.294Z,-3.80
2018-02-23T02:18:58.464Z,-3.80
2018-02-23T02:21:24.910Z,-3.80
2018-02-23T02:23:51.064Z,-3.90
2018-02-23T02:26:17.254Z,-4.00
2018-02-23T02:28:43.404Z,-3.90
2018-02-23T02:31:10.259Z,-3.90
2018-02-23T02:33:37.278Z,-3.90
2018-02-23T02:36:03.415Z,-3.90
2018-02-23T02:38:29.553Z,-4.00
2018-02-23T02:40:55.710Z,-4.00
2018-02-23T02:43:21.864Z,-4.00
2018-02-23T02:45:48.004Z,-4.00
2018-02-23T02:48:14.884Z,-4.10
2018-02-23T02:50:41.019Z,-4.00
2018-02-23T02:53:07.165Z,-4.00
2018-02-23T02:55:33.258Z,-4.00
2018-02-23T02:57:59.404Z,-4.10
2018-02-23T03:00:25.539Z,-4.10
2018-02-23T03:02:51.737Z,-4.10
2018-02-23T03:05:17.907Z,-4.20
2018-02-23T03:07:44.016Z,-4.20
2018-02-23T03:10:10.135Z,-4.10
2018-02-23T03:12:36.321Z,-4.10
2018-02-23T03:15:02.467Z,-4.10
2018-02-23T03:17:28.638Z,-4.20
2018-02-23T03:19:55.528Z,-4.10
2018-02-23T03:22:21.972Z,-4.10
2018-02-23T03:24:48.112Z,-4.10
2018-02-23T03:27:14.236Z,-4.10
2018-02-23T03:29:40.378Z,-4.10
2018-02-23T03:32:06.524Z,-4.10
2018-02-23T03:34:32.667Z,-4.10
2018-02-23T03:36:58.831Z,-4.10
2018-02-23T03:39:24.957Z,-4.20
2018-02-23T03:41:51.111Z,-4.30
2018-02-23T03:44:17.230Z,-4.30
2018-02-23T03:46:43.355Z,-4.30
2018-02-23T03:49:09.488Z,-4.30
2018-02-23T03:51:35.631Z,-4.40
2018-02-23T03:54:01.756Z,-4.40
2018-02-23T03:56:27.887Z,-4.40
2018-02-23T03:58:54.111Z,-4.50
2018-02-23T04:01:20.997Z,-4.40
2018-02-23T04:03:47.115Z,-4.50
2018-02-23T04:06:13.269Z,-4.50
2018-02-23T04:08:40.136Z,-4.50
2018-02-23T04:11:06.313Z,-4.50
2018-02-23T04:13:32.439Z,-4.40
2018-02-23T04:15:58.615Z,-4.30
2018-02-23T04:18:24.754Z,-4.30
2018-02-23T04:20:51.431Z,-4.30
2018-02-23T04:23:17.688Z,-4.20
2018-02-23T04:25:43.836Z,-4.20
2018-02-23T04:28:09.983Z,-4.20
2018-02-23T04:30:36.143Z,-4.20
2018-02-23T04:33:02.364Z,-4.30
2018-02-23T04:35:29.231Z,-4.20
2018-02-23T04:37:55.405Z,-4.30
2018-02-23T04:40:21.612Z,-4.40
2018-02-23T04:42:47.722Z,-4.40
2018-02-23T04:45:13.903Z,-4.40
2018-02-23T04:47:40.043Z,-4.50
2018-02-23T04:50:06.580Z,-4.60
2018-02-23T04:52:32.716Z,-4.60
2018-02-23T04:54:58.871Z,-4.60
2018-02-23T04:57:24.998Z,-4.70
2018-02-23T04:59:51.157Z,-4.70
2018-02-23T05:02:17.295Z,-4.70
2018-02-23T05:04:43.444Z,-4.60
2018-02-23T05:07:09.604Z,-4.60
2018-02-23T05:09:36.496Z,-4.50
2018-02-23T05:12:02.624Z,-4.60
2018-02-23T05:14:28.800Z,-4.50
2018-02-23T05:16:54.962Z,-4.40
2018-02-23T05:19:21.167Z,-4.40
2018-02-23T05:21:47.303Z,-4.40
2018-02-23T05:24:13.429Z,-4.40
2018-02-23T05:26:39.573Z,-4.40
2018-02-23T05:29:05.707Z,-4.40
2018-02-23T05:31:31.888Z,-4.50
2018-02-23T05:33:58.015Z,-4.50
2018-02-23T05:36:25.120Z,-4.50
2018-02-23T05:38:51.272Z,-4.50
2018-02-23T05:41:17.423Z,-4.60
2018-02-23T05:43:44.261Z,-4.60
2018-02-23T05:46:10.393Z,-4.60
2018-02-23T05:48:37.288Z,-4.50
2018-02-23T05:51:03.460Z,-4.60
2018-02-23T05:53:30.397Z,-4.50
2018-02-23T05:55:56.536Z,-4.50
2018-02-23T05:58:22.699Z,-4.50
2018-02-23T06:00:48.898Z,-4.60
2018-02-23T06:03:15.066Z,-4.50
2018-02-23T06:05:41.286Z,-4.40
2018-02-23T06:08:07.529Z,-4.40
2018-02-23T06:10:33.797Z,-4.50
2018-02-23T06:12:59.996Z,-4.50
2018-02-23T06:15:32.250Z,-4.50
2018-02-23T06:18:05.282Z,-4.50
2018-02-23T06:20:31.505Z,-4.50
2018-02-23T06:22:57.722Z,-4.50
2018-02-23T06:25:24.610Z,-4.40
2018-02-23T06:27:50.863Z,-4.40
2018-02-23T06:30:17.043Z,-4.40
2018-02-23T06:32:43.266Z,-4.40
2018-02-23T06:35:12.245Z,-4.40
2018-02-23T06:37:38.623Z,-4.50
2018-02-23T06:40:05.000Z,-4.60
2018-02-23T06:42:31.303Z,-4.60
2018-02-23T06:44:58.210Z,-4.70
2018-02-23T06:47:25.248Z,-4.70
2018-02-23T06:49:52.193Z,-4.60
2018-02-23T06:52:18.299Z,-4.70
2018-02-23T06:54:45.254Z,-4.60
2018-02-23T06:57:11.422Z,-4.50
2018-02-23T06:59:37.580Z,-4.40
2018-02-23T07:02:03.829Z,-4.40
2018-02-23T07:04:30.713Z,-4.20
2018-02-23T07:06:56.944Z,-4.30
2018-02-23T07:09:23.389Z,-4.20
2018-02-23T07:11:49.564Z,-4.20
2018-02-23T07:14:15.716Z,-4.20
2018-02-23T07:16:41.828Z,-4.10
2018-02-23T07:19:07.973Z,-4.10
2018-02-23T07:21:34.117Z,-4.10
2018-02-23T07:24:00.242Z,-4.00
2018-02-23T07:26:26.379Z,-4.00
2018-02-23T07:28:52.583Z,-4.00
2018-02-23T07:31:18.761Z,-3.90
2018-02-23T07:33:44.970Z,-3.80
2018-02-23T07:36:11.878Z,-3.70
2018-02-23T07:38:38.142Z,-3.80
2018-02-23T07:41:04.538Z,-3.70
2018-02-23T07:43:30.699Z,-3.60
2018-02-23T07:45:56.806Z,-3.60
2018-02-23T07:48:22.969Z,-3.50
2018-02-23T07:50:49.227Z,-3.40
2018-02-23T07:53:15.385Z,-3.30
2018-02-23T07:55:41.530Z,-3.20
2018-02-23T07:58:07.659Z,-3.10
2018-02-23T08:00:33.829Z,-3.00
2018-02-23T08:03:00.823Z,-2.80
2018-02-23T08:05:26.951Z,-2.80
2018-02-23T08:07:53.117Z,-2.70
2018-02-23T08:10:19.415Z,-2.50
2018-02-23T08:12:45.513Z,-2.30
2018-02-23T08:15:11.700Z,-2.10
2018-02-23T08:17:38.576Z,-1.80
2018-02-23T08:20:04.828Z,-1.80
2018-02-23T08:22:30.959Z,-1.70
2018-02-23T08:24:57.126Z,-1.60
2018-02-23T08:27:23.306Z,-1.50
2018-02-23T08:29:50.190Z,-1.30
2018-02-23T08:32:16.335Z,-1.30
2018-02-23T08:34:42.721Z,-1.10
2018-02-23T08:37:08.859Z,-1.00
2018-02-23T08:39:35.075Z,-1.00
2018-02-23T08:42:01.270Z,-0.90
2018-02-23T08:44:28.171Z,-0.80
2018-02-23T08:46:54.291Z,-0.80
2018-02-23T08:49:20.427Z,-0.70
2018-02-23T08:51:46.581Z,-0.60
2018-02-23T08:54:12.773Z,-0.50
2018-02-23T08:56:39.721Z,-0.40
2018-02-23T08:59:06.016Z,-0.40
2018-02-23T09:01:32.156Z,-0.40
2018-02-23T09:03:58.336Z,-0.40
2018-02-23T09:06:24.499Z,-0.30
2018-02-23T09:08:51.423Z,-0.20
2018-02-23T09:11:17.576Z,-0.30
2018-02-23T09:13:43.717Z,-0.20
2018-02-23T09:16:10.060Z,-0.20
2018-02-23T09:18:36.228Z,-0.10
2018-02-23T09:21:02.504Z,-0.10
2018-02-23T09:23:28.653Z,-0.10
2018-02-23T09:25:54.791Z,-0.10
2018-02-23T09:28:21.093Z,0.00
2018-02-23T09:30:47.223Z,0.10
2018-02-23T09:33:13.327Z,0.20
2018-02-23T09:35:39.519Z,0.20
2018-02-23T09:38:05.640Z,0.30
2018-02-23T09:40:32.309Z,0.40
2018-02-23T09:42:58.470Z,0.40
2018-02-23T09:45:24.631Z,0.40
2018-02-23T09:47:50.814Z,0.50
2018-02-23T09:50:17.702Z,0.60
2018-02-23T09:52:43.877Z,0.60
2018-02-23T09:55:10.078Z,0.70
2018-02-23T09:57:36.283Z,0.70
2018-02-23T10:00:02.511Z,0.80
2018-02-23T10:02:28.689Z,0.80
2018-02-23T10:07:53.010Z,0.90
2018-02-23T10:10:19.243Z,0.90
2018-02-23T10:12:46.151Z,1.00
2018-02-23T10:15:12.364Z,0.90
2018-02-23T10:17:38.542Z,1.00
2018-02-23T10:20:05.142Z,1.00
2018-02-23T10:22:31.391Z,1.10
2018-02-23T10:24:57.602Z,1.20
2018-02-23T10:27:23.755Z,1.30
2018-02-23T10:29:49.944Z,1.20
2018-02-23T10:32:16.099Z,1.30
2018-02-23T10:34:42.263Z,1.40
2018-02-23T10:37:09.172Z,1.40
2018-02-23T10:39:35.367Z,1.30
2018-02-23T10:42:02.255Z,1.40
2018-02-23T10:44:28.482Z,1.40
2018-02-23T10:46:54.689Z,1.60
2018-02-23T10:49:20.900Z,1.60
2018-02-23T10:51:47.095Z,1.60
2018-02-23T10:54:14.012Z,1.70
2018-02-23T10:56:40.185Z,1.60
2018-02-23T10:59:07.086Z,1.80
2018-02-23T11:01:33.311Z,1.70
2018-02-23T11:03:59.446Z,1.80
2018-02-23T11:06:25.651Z,1.80
2018-02-23T11:08:51.816Z,1.80
2018-02-23T11:11:17.993Z,1.90
2018-02-23T11:13:44.160Z,2.00
2018-02-23T11:16:10.333Z,2.10
2018-02-23T11:21:39.711Z,2.20
2018-02-23T11:24:05.889Z,2.20
2018-02-23T11:26:32.827Z,2.20
2018-02-23T11:28:58.998Z,2.20
2018-02-23T11:31:25.168Z,2.30
2018-02-23T11:33:51.339Z,2.30
2018-02-23T11:36:17.563Z,2.30
2018-02-23T11:38:43.704Z,2.30
2018-02-23T11:41:09.851Z,2.40
2018-02-23T11:43:36.109Z,2.40
2018-02-23T11:46:02.268Z,2.30
2018-02-23T11:48:28.466Z,2.30
2018-02-23T11:50:54.950Z,2.40
2018-02-23T11:53:21.136Z,2.50
2018-02-23T11:55:47.270Z,2.60
2018-02-23T11:58:13.431Z,2.60
2018-02-23T12:00:39.596Z,2.50
2018-02-23T12:03:05.852Z,2.50
2018-02-23T12:05:32.018Z,2.60
2018-02-23T12:07:58.904Z,2.60
2018-02-23T12:10:25.211Z,2.60
2018-02-23T12:12:52.915Z,2.70
2018-02-23T12:15:19.075Z,2.70
2018-02-23T12:17:45.203Z,2.70
2018-02-23T12:20:11.860Z,2.70
2018-02-23T12:22:38.746Z,2.90
2018-02-23T12:25:04.922Z,2.90
2018-02-23T12:27:31.871Z,3.00
2018-02-23T12:29:58.106Z,2.90
2018-02-23T12:32:26.074Z,3.00
2018-02-23T12:34:52.214Z,3.10
2018-02-23T12:37:18.355Z,3.20
2018-02-23T12:42:46.985Z,3.30
2018-02-23T12:45:13.137Z,3.30
2018-02-23T12:47:43.621Z,3.20
2018-02-23T12:50:10.675Z,3.20
2018-02-23T12:52:37.164Z,3.20
2018-02-23T12:55:05.506Z,3.30
2018-02-23T12:57:32.551Z,3.20
2018-02-23T12:59:59.495Z,3.30
2018-02-23T13:02:26.528Z,3.20
2018-02-23T13:04:52.688Z,3.30
2018-02-23T13:07:21.289Z,3.40
2018-02-23T13:09:47.543Z,3.40
2018-02-23T13:12:14.002Z,3.50
2018-02-23T13:14:46.580Z,3.60
2018-02-23T13:17:15.082Z,3.60
2018-02-23T13:19:41.445Z,3.60
2018-02-23T13:22:08.472Z,3.60
2018-02-23T13:24:34.866Z,3.60
2018-02-23T13:27:07.176Z,3.70
2018-02-23T13:29:34.261Z,3.80
2018-02-23T13:32:02.037Z,3.80
2018-02-23T13:34:28.252Z,3.90
2018-02-23T13:36:54.410Z,3.90
2018-02-23T13:39:20.679Z,3.90
2018-02-23T13:41:48.210Z,3.90
2018-02-23T13:44:15.206Z,3.90
2018-02-23T13:46:42.183Z,3.90
2018-02-23T13:49:09.388Z,3.90
2018-02-23T13:51:35.864Z,3.90
2018-02-23T13:54:09.322Z,3.90
2018-02-23T13:56:35.931Z,3.90
2018-02-23T13:59:02.942Z,4.00
2018-02-23T14:01:29.410Z,3.90
2018-02-23T14:03:55.641Z,4.00
2018-02-23T14:06:28.091Z,3.90
2018-02-23T14:08:55.575Z,4.00
2018-02-23T14:11:21.916Z,4.00
2018-02-23T14:13:48.560Z,4.10
2018-02-23T14:16:15.098Z,4.00
2018-02-23T14:18:41.757Z,4.00
2018-02-23T14:21:07.942Z,4.00
2018-02-23T14:23:35.181Z,4.10
2018-02-23T14:26:02.035Z,4.10
2018-02-23T14:28:28.157Z,4.20
2018-02-23T14:30:54.302Z,4.20
2018-02-23T14:33:20.474Z,4.20
2018-02-23T14:35:46.658Z,4.20
2018-02-23T14:38:13.730Z,4.20
2018-02-23T14:40:39.935Z,4.20
2018-02-23T14:43:06.075Z,4.20
2018-02-23T14:45:33.191Z,4.20
2018-02-23T14:47:59.716Z,4.10
2018-02-23T14:50:38.212Z,4.20
2018-02-23T14:53:04.491Z,4.20
2018-02-23T14:55:32.181Z,4.20
2018-02-23T14:57:59.052Z,4.10
2018-02-23T15:00:25.229Z,4.10
2018-02-23T15:02:51.482Z,4.20
2018-02-23T15:05:17.763Z,4.20
2018-02-23T15:07:44.019Z,4.20
2018-02-23T15:10:10.578Z,4.20
2018-02-23T15:12:36.850Z,4.20
2018-02-23T15:15:03.899Z,4.20
2018-02-23T15:17:32.342Z,4.20
2018-02-23T15:19:59.961Z,4.10
2018-02-23T15:22:26.543Z,4.10
2018-02-23T15:24:55.655Z,4.10
2018-02-23T15:27:23.013Z,4.10
2018-02-23T15:29:49.891Z,4.10
2018-02-23T15:32:39.220Z,4.10
2018-02-23T15:35:05.595Z,4.10
2018-02-23T15:37:45.627Z,4.00
2018-02-23T15:40:12.815Z,4.00
2018-02-23T15:42:46.084Z,3.90
2018-02-23T15:45:13.396Z,3.80
2018-02-23T15:47:42.231Z,3.80
2018-02-23T15:50:18.785Z,3.80
2018-02-23T15:52:47.373Z,3.70
2018-02-23T15:55:13.830Z,3.70
2018-02-23T15:57:47.444Z,3.70
2018-02-23T16:00:14.389Z,3.60
2018-02-23T16:02:44.169Z,3.60
2018-02-23T16:05:13.164Z,3.50
2018-02-23T16:07:39.491Z,3.40
2018-02-23T16:10:05.632Z,3.40
2018-02-23T16:12:31.807Z,3.30
2018-02-23T16:14:57.965Z,3.30
2018-02-23T16:17:24.150Z,3.20
2018-02-23T16:19:50.880Z,3.20
2018-02-23T16:22:17.149Z,3.20
2018-02-23T16:24:43.917Z,3.10
2018-02-23T16:27:10.261Z,3.10
2018-02-23T16:29:36.609Z,3.00
2018-02-23T16:32:02.834Z,2.90
2018-02-23T16:34:29.036Z,2.90
2018-02-23T16:36:56.720Z,2.70
2018-02-23T16:39:23.790Z,2.60
2018-02-23T16:41:50.588Z,2.60
2018-02-23T16:44:16.896Z,2.60
2018-02-23T16:46:43.078Z,2.50
2018-02-23T16:49:09.630Z,2.40
2018-02-23T16:51:35.796Z,2.30
2018-02-23T16:54:01.918Z,2.30
2018-02-23T16:56:28.085Z,2.20
2018-02-23T16:58:55.542Z,2.20
2018-02-23T17:01:22.023Z,2.10
2018-02-23T17:03:48.393Z,2.00
2018-02-23T17:06:15.058Z,1.90
2018-02-23T17:08:45.158Z,1.80
2018-02-23T17:11:13.163Z,1.70
2018-02-23T17:13:41.405Z,1.70
2018-02-23T17:16:13.233Z,1.70
2018-02-23T17:18:40.037Z,1.50
2018-02-23T17:21:06.577Z,1.30
2018-02-23T17:23:34.637Z,1.30
2018-02-23T17:26:01.854Z,1.20
2018-02-23T17:28:28.425Z,1.10
2018-02-23T17:30:54.768Z,1.10
2018-02-23T17:33:21.198Z,1.10
2018-02-23T17:35:48.167Z,0.90
2018-02-23T17:38:14.939Z,0.90
2018-02-23T17:40:41.136Z,0.90
2018-02-23T17:43:07.288Z,0.90
2018-02-23T17:45:33.611Z,0.70
2018-02-23T17:47:59.773Z,0.70
2018-02-23T17:50:25.939Z,0.60
2018-02-23T17:52:52.108Z,0.50
2018-02-23T17:55:18.554Z,0.50
2018-02-23T17:57:46.357Z,0.30
2018-02-23T18:00:13.175Z,0.20
2018-02-23T18:02:39.453Z,0.30
2018-02-23T18:05:08.437Z,0.20
2018-02-23T18:07:34.952Z,0.20
2018-02-23T18:10:02.724Z,0.10
2018-02-23T18:12:31.839Z,0.10
2018-02-23T18:14:58.568Z,0.00
2018-02-23T18:17:25.246Z,-0.10
2018-02-23T18:19:51.473Z,-0.20
2018-02-23T18:22:17.983Z,-0.20
2018-02-23T18:24:44.250Z,-0.20
2018-02-23T18:27:10.448Z,-0.30
2018-02-23T18:29:36.934Z,-0.30
2018-02-23T18:32:03.330Z,-0.40
2018-02-23T18:34:29.542Z,-0.50
2018-02-23T18:36:55.798Z,-0.50
2018-02-23T18:39:31.424Z,-0.50
2018-02-23T18:41:58.414Z,-0.60
2018-02-23T18:44:25.488Z,-0.50
2018-02-23T18:46:52.289Z,-0.50
2018-02-23T18:49:20.421Z,-0.70
2018-02-23T18:51:47.443Z,-0.70
2018-02-23T18:54:14.197Z,-0.80
2018-02-23T18:56:40.449Z,-0.80
2018-02-23T18:59:07.274Z,-0.90
2018-02-23T19:01:33.846Z,-0.90
2018-02-23T19:04:02.746Z,-1.00
2018-02-23T19:06:29.923Z,-1.00
2018-02-23T19:08:56.246Z,-1.10
2018-02-23T19:11:22.534Z,-1.10
2018-02-23T19:13:48.917Z,-1.20
2018-02-23T19:16:15.641Z,-1.20
2018-02-23T19:18:43.001Z,-1.40
2018-02-23T19:21:09.410Z,-1.40
2018-02-23T19:23:36.289Z,-1.50
2018-02-23T19:26:02.558Z,-1.50
2018-02-23T19:28:28.786Z,-1.50
2018-02-23T19:30:54.976Z,-1.50
2018-02-23T19:33:21.223Z,-1.50
2018-02-23T19:35:47.903Z,-1.50
2018-02-23T19:38:15.254Z,-1.40
2018-02-23T19:40:41.494Z,-1.40
2018-02-23T19:43:07.704Z,-1.40
2018-02-23T19:45:35.085Z,-1.30
2018-02-23T19:48:01.441Z,-1.30
2018-02-23T19:50:27.624Z,-1.30
2018-02-23T19:52:54.970Z,-1.30
2018-02-23T19:55:21.155Z,-1.20
2018-02-23T19:57:48.393Z,-1.30
2018-02-23T20:00:15.297Z,-1.40
2018-02-23T20:02:42.428Z,-1.40
2018-02-23T20:05:09.873Z,-1.50
2018-02-23T20:07:36.197Z,-1.60
2018-02-23T20:10:02.786Z,-1.70
2018-02-23T20:12:33.420Z,-1.80
2018-02-23T20:14:59.919Z,-1.80
2018-02-23T20:17:26.266Z,-1.80
2018-02-23T20:19:52.506Z,-1.90
2018-02-23T20:22:18.871Z,-1.90
2018-02-23T20:24:47.016Z,-2.00
2018-02-23T20:27:13.444Z,-2.00
2018-02-23T20:29:39.723Z,-2.00
2018-02-23T20:32:06.251Z,-2.00
2018-02-23T20:34:32.954Z,-2.00
2018-02-23T20:37:04.312Z,-2.10
2018-02-23T20:39:35.765Z,-2.10
2018-02-23T20:42:04.837Z,-2.10
2018-02-23T20:44:33.406Z,-2.10
2018-02-23T20:47:03.238Z,-2.10
2018-02-23T20:49:30.135Z,-2.10
2018-02-23T20:51:56.263Z,-2.20
2018-02-23T20:54:23.496Z,-2.20
2018-02-23T20:56:49.989Z,-2.20
2018-02-23T20:59:16.835Z,-2.20
2018-02-23T21:01:43.185Z,-2.20
2018-02-23T21:04:09.426Z,-2.20
2018-02-23T21:06:36.004Z,-2.30
2018-02-23T21:09:02.224Z,-2.40
2018-02-23T21:11:29.174Z,-2.40
2018-02-23T21:13:55.912Z,-2.50
2018-02-23T21:16:22.216Z,-2.40
2018-02-23T21:18:48.544Z,-2.40
2018-02-23T21:21:15.733Z,-2.30
2018-02-23T21:23:42.377Z,-2.40
2018-02-23T21:26:09.581Z,-2.40
2018-02-23T21:28:35.811Z,-2.40
2018-02-23T21:31:02.909Z,-2.30
2018-02-23T21:33:29.553Z,-2.30
2018-02-23T21:35:55.722Z,-2.20
2018-02-23T21:38:22.379Z,-2.30
2018-02-23T21:40:48.708Z,-2.20
2018-02-23T21:43:15.293Z,-2.20
2018-02-23T21:45:41.942Z,-2.10
2018-02-23T21:48:08.571Z,-2.10
2018-02-23T21:50:34.911Z,-2.00
2018-02-23T21:53:02.238Z,-2.00
2018-02-23T21:55:28.437Z,-1.90
2018-02-23T21:57:54.630Z,-1.90
2018-02-23T22:00:21.278Z,-2.00
2018-02-23T22:02:47.886Z,-2.00
2018-02-23T22:05:14.651Z,-2.00
2018-02-23T22:07:41.500Z,-2.00
2018-02-23T22:10:08.257Z,-1.90
2018-02-23T22:12:34.773Z,-1.90
2018-02-23T22:15:00.962Z,-2.00
2018-02-23T22:17:27.123Z,-2.00
2018-02-23T22:19:53.243Z,-1.90
2018-02-23T22:22:22.244Z,-2.00
2018-02-23T22:24:49.392Z,-2.00
2018-02-23T22:27:16.475Z,-2.00
2018-02-23T22:29:42.657Z,-2.00
2018-02-23T22:32:11.925Z,-2.00
2018-02-23T22:34:38.289Z,-2.00
2018-02-23T22:37:04.744Z,-2.10
2018-02-23T22:39:30.977Z,-2.00
2018-02-23T22:41:57.330Z,-2.10
2018-02-23T22:44:23.521Z,-2.10
2018-02-23T22:46:50.412Z,-2.10
2018-02-23T22:49:16.816Z,-2.10
2018-02-23T22:51:42.953Z,-2.20
2018-02-23T22:54:09.062Z,-2.20
2018-02-23T22:56:35.196Z,-2.30
2018-02-23T22:59:01.956Z,-2.20
2018-02-23T23:01:29.117Z,-2.20
2018-02-23T23:03:56.404Z,-2.20
2018-02-23T23:06:22.543Z,-2.30
2018-02-23T23:08:48.643Z,-2.30
2018-02-23T23:11:15.002Z,-2.40
2018-02-23T23:13:41.168Z,-2.50
2018-02-23T23:16:07.312Z,-2.50
2018-02-23T23:18:33.469Z,-2.50
2018-02-23T23:20:59.891Z,-2.50
2018-02-23T23:23:27.483Z,-2.50
2018-02-23T23:25:53.723Z,-2.50
2018-02-23T23:28:19.829Z,-2.50
2018-02-23T23:30:46.023Z,-2.50
2018-02-23T23:33:13.270Z,-2.60
2018-02-23T23:35:39.634Z,-2.60
2018-02-23T23:38:06.127Z,-2.60
2018-02-23T23:40:32.347Z,-2.50
2018-02-23T23:42:58.735Z,-2.50
2018-02-23T23:45:26.290Z,-2.50
2018-02-23T23:47:53.196Z,-2.50
2018-02-23T23:50:19.347Z,-2.50
2018-02-23T23:52:45.466Z,-2.50
2018-02-23T23:55:12.549Z,-2.60
2018-02-23T23:57:39.054Z,-2.60
